Time;durP1;ratioP1;P1;durP2;ratioP2;P2;SDS_P1;SDS_P2;PMS_P1;PMS_P2;Temp;Humidity;BMP_temperature;BMP_pressure;BME280_temperature;BME280_humidity;BME280_pressure;Samples;Min_cycle;Max_cycle;Signal;HPM_P1;HPM_P2
2023/04/05 00:02:39;;;;;;;4.80;3.25;;;22.20;33.10;;;;;;6152524;28;80325;-60
2023/04/05 00:05:40;;;;;;;6.90;3.60;;;22.20;33.20;;;;;;6133937;28;80591;-65
2023/04/05 00:08:40;;;;;;;6.72;3.47;;;22.20;33.20;;;;;;6151576;28;81414;-65
2023/04/05 00:11:41;;;;;;;6.47;3.58;;;22.30;33.10;;;;;;6151683;28;80443;-61
2023/04/05 00:14:41;;;;;;;5.57;3.13;;;22.30;33.30;;;;;;6149834;28;87114;-62
2023/04/05 00:17:42;;;;;;;7.57;3.78;;;22.30;33.20;;;;;;6126269;28;80816;-61
2023/04/05 00:20:42;;;;;;;7.47;3.90;;;22.30;33.20;;;;;;6152364;28;80357;-61
2023/04/05 00:23:43;;;;;;;5.38;3.63;;;22.30;33.00;;;;;;6152595;28;81011;-71
2023/04/05 00:26:44;;;;;;;6.57;3.53;;;22.30;33.00;;;;;;6151684;28;80612;-60
2023/04/05 00:29:45;;;;;;;5.57;3.67;;;22.30;32.90;;;;;;6147999;28;80313;-58
2023/04/05 00:32:45;;;;;;;8.43;4.28;;;22.30;33.00;;;;;;6141583;28;84009;-59
2023/04/05 00:35:46;;;;;;;8.05;4.18;;;22.30;33.60;;;;;;6148622;28;81934;-61
2023/04/05 00:38:46;;;;;;;7.93;4.07;;;22.30;33.50;;;;;;6102006;28;82378;-61
2023/04/05 00:41:47;;;;;;;6.97;3.83;;;22.30;33.20;;;;;;6127214;28;80848;-61
2023/04/05 00:44:47;;;;;;;5.65;3.30;;;22.30;33.00;;;;;;6119432;28;81775;-66
2023/04/05 00:47:48;;;;;;;6.75;3.78;;;22.30;32.90;;;;;;6107081;28;82078;-67
2023/04/05 00:50:48;;;;;;;7.45;4.03;;;22.20;32.80;;;;;;6132002;28;80911;-66
2023/04/05 00:53:51;;;;;;;8.65;3.65;;;22.30;32.70;;;;;;6149702;28;81038;-67
2023/04/05 00:56:52;;;;;;;5.68;3.72;;;22.30;32.60;;;;;;6150589;28;80506;-67
2023/04/05 00:59:52;;;;;;;6.85;4.07;;;22.20;32.60;;;;;;6151539;28;80774;-68
2023/04/05 01:02:53;;;;;;;7.22;3.70;;;22.30;32.50;;;;;;6152417;28;80098;-60
2023/04/05 01:05:54;;;;;;;7.70;4.60;;;22.20;32.20;;;;;;6151475;28;80657;-60
2023/04/05 01:08:55;;;;;;;7.47;3.85;;;22.20;32.30;;;;;;6117000;28;81670;-62
2023/04/05 01:11:55;;;;;;;5.60;3.40;;;22.20;32.10;;;;;;6149757;28;80547;-62
2023/04/05 01:14:56;;;;;;;6.90;3.70;;;22.20;32.10;;;;;;6150899;28;80900;-63
2023/04/05 01:18:00;;;;;;;6.38;4.22;;;22.10;32.10;;;;;;6152264;28;80762;-62
2023/04/05 01:21:01;;;;;;;6.70;3.85;;;22.20;32.10;;;;;;6110244;28;83150;-67
2023/04/05 01:24:01;;;;;;;6.22;3.65;;;22.10;32.00;;;;;;6143500;28;81074;-66
2023/04/05 01:27:02;;;;;;;7.25;3.47;;;22.10;31.90;;;;;;6099474;28;83678;-65
2023/04/05 01:30:03;;;;;;;7.22;4.10;;;22.10;31.90;;;;;;6107671;28;83609;-66
2023/04/05 01:33:03;;;;;;;9.07;4.53;;;22.10;31.90;;;;;;6133359;28;83142;-66
2023/04/05 01:36:04;;;;;;;7.45;3.92;;;22.10;31.80;;;;;;6155359;28;80803;-66
2023/04/05 01:39:05;;;;;;;6.47;3.83;;;22.10;31.80;;;;;;6146582;28;83416;-65
2023/04/05 01:42:05;;;;;;;8.07;3.72;;;22.10;31.80;;;;;;6154682;28;82359;-66
2023/04/05 01:45:06;;;;;;;8.07;3.70;;;22.10;31.80;;;;;;6154460;28;87150;-66
2023/04/05 01:48:07;;;;;;;7.97;3.90;;;22.10;31.80;;;;;;6154921;28;81755;-66
2023/04/05 01:51:07;;;;;;;7.25;3.95;;;22.10;31.80;;;;;;6153616;28;83560;-70
2023/04/05 01:54:10;;;;;;;6.43;4.05;;;22.10;31.80;;;;;;6155318;28;80244;-71
2023/04/05 01:57:11;;;;;;;6.43;3.72;;;22.10;31.70;;;;;;6155232;28;80454;-70
2023/04/05 02:00:12;;;;;;;8.57;4.78;;;22.10;31.70;;;;;;6155121;28;80461;-67
2023/04/05 02:03:15;;;;;;;9.80;4.30;;;22.10;31.70;;;;;;6154590;28;80144;-69
2023/04/05 02:06:15;;;;;;;8.27;4.28;;;22.10;31.70;;;;;;6154012;28;81336;-69
2023/04/05 02:09:16;;;;;;;7.78;4.43;;;22.10;31.70;;;;;;6155888;28;81006;-72
2023/04/05 02:12:19;;;;;;;7.40;4.18;;;22.10;31.70;;;;;;6152953;28;83413;-70
2023/04/05 02:15:19;;;;;;;10.65;5.00;;;22.10;31.70;;;;;;6153445;28;81515;-63
2023/04/05 02:18:28;;;;;;;10.25;4.85;;;22.10;31.70;;;;;;6151853;28;82954;-62
2023/04/05 02:21:30;;;;;;;7.07;4.20;;;22.10;31.80;;;;;;6154568;28;80713;-63
2023/04/05 02:24:31;;;;;;;8.20;4.38;;;22.10;31.80;;;;;;6153048;28;83097;-64
2023/04/05 02:27:31;;;;;;;9.23;4.30;;;22.10;31.70;;;;;;6153304;28;82893;-64
2023/04/05 02:30:32;;;;;;;6.68;4.20;;;22.10;31.80;;;;;;6151194;28;80750;-60
2023/04/05 02:33:32;;;;;;;8.05;4.55;;;22.10;31.80;;;;;;6136362;28;81305;-59
2023/04/05 02:36:33;;;;;;;6.40;3.95;;;22.10;31.80;;;;;;6153159;28;80356;-58
2023/04/05 02:39:34;;;;;;;8.45;4.63;;;22.10;31.70;;;;;;6154014;28;80591;-58
2023/04/05 02:42:35;;;;;;;8.55;4.70;;;22.10;31.80;;;;;;6151752;28;80382;-61
2023/04/05 02:45:35;;;;;;;6.68;4.25;;;22.10;31.80;;;;;;6130552;28;83682;-62
2023/04/05 02:48:36;;;;;;;9.18;4.68;;;22.10;31.90;;;;;;6133110;28;81423;-59
2023/04/05 02:51:37;;;;;;;9.02;4.53;;;22.10;31.90;;;;;;6139402;28;83383;-59
2023/04/05 02:54:42;;;;;;;10.00;5.13;;;22.10;32.10;;;;;;6135653;28;80555;-60
2023/04/05 02:57:43;;;;;;;6.18;3.78;;;22.10;32.00;;;;;;6153483;28;80571;-61
2023/04/05 03:00:56;;;;;;;10.73;4.47;;;22.10;31.90;;;;;;6123082;28;83541;-59
2023/04/05 03:04:03;;;;;;;7.68;4.65;;;22.10;32.00;;;;;;6136991;28;83575;-59
2023/04/05 03:07:06;;;;;;;8.75;4.95;;;22.10;31.80;;;;;;6138161;28;81912;-61
2023/04/05 03:10:12;;;;;;;7.35;4.60;;;22.10;31.70;;;;;;6120260;28;81823;-68
2023/04/05 03:13:14;;;;;;;8.80;4.78;;;22.00;31.80;;;;;;6125612;28;82319;-69
2023/04/05 03:16:15;;;;;;;8.55;4.80;;;22.10;32.00;;;;;;6135579;28;82658;-68
2023/04/05 03:19:17;;;;;;;8.50;5.10;;;22.10;31.60;;;;;;6131934;28;84622;-66
2023/04/05 03:22:20;;;;;;;10.63;5.30;;;22.20;31.30;;;;;;6128576;28;82077;-67
2023/04/05 03:25:21;;;;;;;8.65;5.10;;;22.30;30.90;;;;;;6133178;28;83414;-66
2023/04/05 03:28:22;;;;;;;10.80;5.57;;;22.30;30.70;;;;;;6115472;28;83228;-62
2023/04/05 03:31:29;;;;;;;10.57;5.28;;;22.30;30.40;;;;;;6146485;28;83270;-60
2023/04/05 03:34:33;;;;;;;9.80;6.13;;;22.40;30.40;;;;;;6129587;28;82632;-60
2023/04/05 03:37:37;;;;;;;7.97;4.63;;;22.50;30.30;;;;;;6125889;28;82754;-62
2023/04/05 03:40:41;;;;;;;7.35;4.68;;;22.50;30.30;;;;;;6123615;28;83340;-62
2023/04/05 03:43:43;;;;;;;10.40;5.25;;;22.50;30.20;;;;;;6127393;28;83708;-62
2023/04/05 03:46:44;;;;;;;8.25;5.35;;;22.60;30.20;;;;;;6143219;28;81818;-62
2023/04/05 03:49:47;;;;;;;12.00;5.63;;;22.60;30.40;;;;;;6145319;28;83675;-62
2023/04/05 03:52:47;;;;;;;10.63;5.60;;;22.70;30.30;;;;;;6152856;28;80281;-62
2023/04/05 03:55:49;;;;;;;10.13;5.80;;;22.70;30.30;;;;;;6143239;28;83488;-62
2023/04/05 03:58:52;;;;;;;9.40;5.38;;;22.70;30.20;;;;;;6137637;28;82377;-62
2023/04/05 04:01:57;;;;;;;14.03;5.53;;;22.70;30.00;;;;;;6150553;28;84417;-61
2023/04/05 04:04:58;;;;;;;9.65;5.63;;;22.70;30.00;;;;;;6150876;28;81767;-62
2023/04/05 04:07:59;;;;;;;11.25;5.75;;;22.80;30.00;;;;;;6150614;28;81879;-63
2023/04/05 04:11:00;;;;;;;8.52;5.28;;;22.80;30.00;;;;;;6151144;28;83278;-64
2023/04/05 04:14:07;;;;;;;11.40;5.20;;;22.80;30.00;;;;;;6138797;28;83563;-60
2023/04/05 04:17:26;;;;;;;10.05;5.20;;;22.80;29.90;;;;;;6151225;28;84628;-64
2023/04/05 04:21:05;;;;;;;11.23;5.80;;;22.80;29.90;;;;;;6109253;28;82822;-57
2023/04/05 04:24:25;;;;;;;10.23;5.28;;;22.80;29.90;;;;;;6135665;28;82136;-66
2023/04/05 04:27:27;;;;;;;10.00;5.45;;;22.80;29.90;;;;;;6151452;28;80408;-68
2023/04/05 04:30:45;;;;;;;10.65;5.20;;;22.80;30.00;;;;;;6133985;28;82914;-66
2023/04/05 04:34:12;;;;;;;9.13;5.28;;;22.80;30.00;;;;;;6128007;28;81707;-69
2023/04/05 04:37:29;;;;;;;12.50;6.10;;;22.90;30.10;;;;;;6145316;28;80379;-67
2023/04/05 04:40:57;;;;;;;13.60;5.88;;;22.90;30.50;;;;;;6104695;28;80470;-70
2023/04/05 04:44:01;;;;;;;11.90;6.47;;;22.90;30.00;;;;;;6146484;28;80475;-65
2023/04/05 04:47:20;;;;;;;15.52;7.10;;;22.90;29.90;;;;;;6151069;28;82854;-66
2023/04/05 04:50:50;;;;;;;10.68;5.78;;;23.00;30.00;;;;;;6064843;28;84736;-58
2023/04/05 04:53:52;;;;;;;15.02;6.30;;;23.00;30.00;;;;;;6150605;28;83627;-59
2023/04/05 04:56:52;;;;;;;12.60;6.68;;;23.00;30.00;;;;;;6150808;28;80335;-65
2023/04/05 04:59:53;;;;;;;14.07;6.75;;;23.00;29.60;;;;;;6151254;28;80434;-63
2023/04/05 05:02:53;;;;;;;16.08;6.80;;;23.00;29.90;;;;;;6155265;28;80451;-61
2023/04/05 05:05:54;;;;;;;13.93;6.43;;;23.00;30.30;;;;;;6154226;28;80668;-64
2023/04/05 05:09:00;;;;;;;12.37;6.43;;;23.00;30.50;;;;;;6152884;28;81822;-63
2023/04/05 05:12:01;;;;;;;12.38;6.65;;;23.00;30.80;;;;;;6142275;28;82732;-64
2023/04/05 05:15:02;;;;;;;14.05;6.45;;;23.00;30.80;;;;;;6150776;28;81154;-65
2023/04/05 05:18:03;;;;;;;17.73;6.57;;;23.00;30.70;;;;;;6151960;28;81900;-64
2023/04/05 05:21:05;;;;;;;12.93;6.85;;;23.00;30.50;;;;;;6151496;28;81414;-64
2023/04/05 05:24:07;;;;;;;12.57;5.63;;;23.00;30.30;;;;;;6153716;28;81466;-64
2023/04/05 05:27:07;;;;;;;13.23;6.25;;;23.00;30.30;;;;;;6156065;28;80954;-64
2023/04/05 05:30:08;;;;;;;11.68;6.60;;;22.90;30.30;;;;;;6151880;28;80996;-63
2023/04/05 05:33:09;;;;;;;14.85;6.03;;;22.90;30.30;;;;;;6152381;28;81569;-64
2023/04/05 05:36:10;;;;;;;11.00;6.50;;;22.90;30.00;;;;;;6152342;28;80597;-64
2023/04/05 05:39:10;;;;;;;16.70;6.82;;;22.90;30.10;;;;;;6135631;28;80733;-61
2023/04/05 05:42:11;;;;;;;11.35;6.00;;;22.80;30.00;;;;;;6113969;28;86336;-61
2023/04/05 05:45:11;;;;;;;15.05;7.05;;;22.80;30.00;;;;;;6148017;28;80977;-61
2023/04/05 05:48:12;;;;;;;13.20;6.82;;;22.80;30.10;;;;;;6151165;28;83466;-61
2023/04/05 05:51:12;;;;;;;12.93;6.75;;;22.70;30.10;;;;;;6150627;28;82253;-62
2023/04/05 05:54:13;;;;;;;14.02;6.97;;;22.70;30.00;;;;;;6148216;28;83424;-59
2023/04/05 05:57:13;;;;;;;14.70;8.07;;;22.60;29.50;;;;;;5997644;28;86045;-59
2023/04/05 06:00:14;;;;;;;15.90;7.72;;;22.50;29.70;;;;;;6138845;28;81712;-59
2023/04/05 06:03:15;;;;;;;18.83;9.05;;;22.30;29.50;;;;;;6134818;28;81504;-59
2023/04/05 06:06:16;;;;;;;18.25;9.68;;;22.20;29.50;;;;;;6126718;28;82198;-59
2023/04/05 06:09:16;;;;;;;19.98;9.65;;;22.10;29.50;;;;;;6135440;28;80716;-59
2023/04/05 06:12:17;;;;;;;20.77;10.00;;;22.00;29.30;;;;;;6130909;28;81708;-58
2023/04/05 06:15:17;;;;;;;17.13;9.60;;;21.80;29.10;;;;;;6136611;28;87261;-63
2023/04/05 06:18:19;;;;;;;16.65;8.55;;;21.80;29.10;;;;;;6143506;28;83366;-63
2023/04/05 06:21:20;;;;;;;18.00;8.60;;;21.70;29.00;;;;;;6143085;28;82597;-63
2023/04/05 06:24:20;;;;;;;22.73;9.52;;;21.60;29.00;;;;;;6149840;28;80659;-63
2023/04/05 06:27:21;;;;;;;20.08;9.10;;;21.50;28.90;;;;;;6149227;28;80879;-62
2023/04/05 06:30:21;;;;;;;14.70;7.55;;;21.40;29.00;;;;;;6143246;28;81758;-66
2023/04/05 06:33:22;;;;;;;17.20;8.98;;;21.30;29.10;;;;;;6121172;28;83964;-65
2023/04/05 06:36:22;;;;;;;15.05;8.13;;;21.20;29.20;;;;;;6129124;28;85222;-63
2023/04/05 06:39:23;;;;;;;16.45;8.43;;;21.20;29.20;;;;;;6149111;28;84964;-65
2023/04/05 06:42:23;;;;;;;13.98;7.85;;;21.10;29.20;;;;;;6145811;28;81306;-62
2023/04/05 06:45:31;;;;;;;15.50;8.02;;;21.20;29.20;;;;;;6128144;28;83744;-63
2023/04/05 06:48:32;;;;;;;16.05;8.13;;;21.10;29.30;;;;;;6130034;28;80908;-63
2023/04/05 06:51:32;;;;;;;12.90;6.97;;;21.10;29.30;;;;;;6146511;28;80640;-61
2023/04/05 06:54:33;;;;;;;15.98;8.05;;;21.10;29.40;;;;;;6149038;28;80190;-61
2023/04/05 06:57:33;;;;;;;15.80;7.60;;;21.10;29.40;;;;;;6149428;28;82344;-61
2023/04/05 07:00:34;;;;;;;15.32;7.60;;;21.20;29.50;;;;;;6102518;28;83177;-60
2023/04/05 07:03:35;;;;;;;14.25;7.63;;;21.10;29.50;;;;;;6129573;28;81737;-60
2023/04/05 07:06:37;;;;;;;13.77;7.55;;;21.10;29.50;;;;;;6123956;28;80274;-60
2023/04/05 07:09:38;;;;;;;16.85;7.38;;;21.10;29.50;;;;;;6118671;28;81025;-61
2023/04/05 07:12:38;;;;;;;13.20;6.57;;;21.10;29.60;;;;;;6109038;28;81199;-59
2023/04/05 07:15:39;;;;;;;11.45;6.30;;;21.10;29.50;;;;;;6144111;28;81052;-61
2023/04/05 07:18:39;;;;;;;13.00;6.68;;;21.20;29.40;;;;;;6147712;28;82506;-61
2023/04/05 07:21:40;;;;;;;12.40;6.60;;;21.20;29.40;;;;;;6147611;28;80851;-63
2023/04/05 07:24:41;;;;;;;15.00;5.72;;;21.30;29.10;;;;;;6147877;28;82856;-62
2023/04/05 07:27:41;;;;;;;10.52;5.80;;;21.30;29.10;;;;;;6141325;28;85029;-61
2023/04/05 07:30:42;;;;;;;9.88;5.05;;;21.40;29.60;;;;;;6111882;28;81825;-60
2023/04/05 07:33:42;;;;;;;9.60;5.72;;;21.50;29.30;;;;;;6133817;28;81159;-61
2023/04/05 07:36:43;;;;;;;8.43;4.60;;;21.50;29.40;;;;;;6148374;28;80633;-63
2023/04/05 07:39:43;;;;;;;13.25;4.07;;;21.60;28.80;;;;;;6145937;28;83334;-61
2023/04/05 07:42:44;;;;;;;9.05;4.95;;;21.60;29.20;;;;;;6142483;28;85383;-61
2023/04/05 07:45:44;;;;;;;8.10;4.75;;;21.70;29.40;;;;;;6136295;28;80608;-61
2023/04/05 07:48:45;;;;;;;10.35;4.70;;;21.70;29.40;;;;;;6144872;28;83877;-61
2023/04/05 07:51:47;;;;;;;8.07;4.70;;;21.70;29.40;;;;;;6145736;28;83384;-62
2023/04/05 07:54:48;;;;;;;9.77;5.18;;;21.70;29.10;;;;;;6145533;28;80519;-61
2023/04/05 07:57:49;;;;;;;8.77;4.70;;;21.80;29.40;;;;;;6142156;28;83865;-60
2023/04/05 08:00:52;;;;;;;12.38;4.82;;;21.90;29.30;;;;;;6143608;28;81137;-60
2023/04/05 08:03:52;;;;;;;8.77;5.07;;;21.90;29.10;;;;;;6145080;28;82465;-65
2023/04/05 08:06:53;;;;;;;13.18;5.25;;;21.90;28.70;;;;;;6146325;28;80990;-65
2023/04/05 08:09:56;;;;;;;8.65;5.07;;;22.00;28.60;;;;;;6142595;28;80385;-65
2023/04/05 08:12:56;;;;;;;12.63;6.35;;;22.00;28.90;;;;;;6140270;28;81866;-64
2023/04/05 08:15:57;;;;;;;13.90;6.22;;;22.10;28.90;;;;;;6134202;28;82315;-59
2023/04/05 08:18:57;;;;;;;13.98;6.78;;;22.10;28.40;;;;;;6144435;28;81493;-58
2023/04/05 08:21:58;;;;;;;12.88;5.85;;;22.10;27.90;;;;;;6145239;28;80555;-63
2023/04/05 08:24:58;;;;;;;12.18;6.53;;;22.00;27.60;;;;;;6145687;28;81162;-65
2023/04/05 08:27:59;;;;;;;14.32;6.50;;;22.00;27.80;;;;;;6146978;28;82613;-67
2023/04/05 08:30:59;;;;;;;10.88;6.25;;;22.00;28.80;;;;;;6144245;28;82760;-67
2023/04/05 08:34:00;;;;;;;12.68;6.45;;;22.10;28.60;;;;;;6145889;28;81777;-67
2023/04/05 08:37:00;;;;;;;12.18;6.32;;;22.20;28.60;;;;;;6144173;28;84416;-66
2023/04/05 08:40:01;;;;;;;11.80;6.45;;;22.20;28.50;;;;;;6146640;28;80543;-62
2023/04/05 08:43:01;;;;;;;11.63;6.97;;;22.30;28.30;;;;;;6122735;28;82826;-61
2023/04/05 08:46:02;;;;;;;12.30;6.32;;;22.40;28.10;;;;;;6143755;28;80884;-63
2023/04/05 08:49:02;;;;;;;12.88;6.70;;;22.40;28.10;;;;;;6119445;28;82223;-62
2023/04/05 08:52:03;;;;;;;14.15;6.47;;;22.50;28.10;;;;;;6073483;28;86454;-63
2023/04/05 08:55:03;;;;;;;11.15;5.82;;;22.40;28.00;;;;;;6144275;28;82305;-62
2023/04/05 08:58:04;;;;;;;11.52;6.30;;;22.30;27.80;;;;;;6139489;28;84005;-61
2023/04/05 09:01:05;;;;;;;10.80;5.22;;;22.40;28.10;;;;;;6143975;28;80245;-64
2023/04/05 09:04:05;;;;;;;9.10;5.05;;;22.30;28.40;;;;;;6146503;28;85293;-64
2023/04/05 09:07:06;;;;;;;9.80;5.28;;;22.30;28.40;;;;;;6147059;28;85337;-65
2023/04/05 09:10:06;;;;;;;12.15;5.00;;;22.30;28.40;;;;;;6087394;28;85847;-65
2023/04/05 09:13:10;;;;;;;8.95;5.05;;;22.20;27.90;;;;;;6133229;28;82692;-64
2023/04/05 09:16:10;;;;;;;7.68;4.25;;;22.20;28.40;;;;;;6089595;28;84984;-65
2023/04/05 09:19:11;;;;;;;12.50;5.50;;;22.20;28.70;;;;;;6120008;28;82033;-65
2023/04/05 09:22:12;;;;;;;10.98;4.95;;;22.20;28.60;;;;;;6145357;28;82470;-65
2023/04/05 09:25:14;;;;;;;11.60;5.70;;;22.20;28.60;;;;;;6146192;28;82399;-64
2023/04/05 09:28:14;;;;;;;8.27;4.60;;;22.20;28.00;;;;;;6144765;28;80651;-65
2023/04/05 09:31:15;;;;;;;8.10;4.90;;;22.20;28.80;;;;;;6140839;28;83336;-64
2023/04/05 09:34:16;;;;;;;8.90;4.63;;;22.20;28.60;;;;;;6146427;28;81322;-66
2023/04/05 09:37:16;;;;;;;7.07;4.25;;;22.20;28.50;;;;;;6121073;28;83911;-65
2023/04/05 09:40:17;;;;;;;13.30;4.80;;;22.20;28.30;;;;;;6124632;28;80963;-64
2023/04/05 09:43:17;;;;;;;11.85;4.70;;;22.20;28.60;;;;;;6085222;28;85365;-65
2023/04/05 09:46:18;;;;;;;9.10;4.80;;;22.10;29.00;;;;;;6124105;28;83750;-64
2023/04/05 09:49:18;;;;;;;8.00;4.18;;;22.10;28.50;;;;;;6150475;28;80445;-64
2023/04/05 09:52:19;;;;;;;7.93;3.75;;;22.10;28.20;;;;;;6147666;28;82059;-63
2023/04/05 09:55:19;;;;;;;9.60;4.22;;;22.10;29.10;;;;;;6151170;28;80595;-65
2023/04/05 09:58:20;;;;;;;9.27;4.30;;;22.00;28.90;;;;;;6139642;28;83343;-65
2023/04/05 10:01:21;;;;;;;11.18;4.20;;;22.00;28.70;;;;;;6144034;28;85342;-65
2023/04/05 10:04:22;;;;;;;7.28;4.35;;;22.00;29.10;;;;;;6150335;28;85983;-65
2023/04/05 10:07:23;;;;;;;7.80;3.95;;;22.00;28.60;;;;;;6148255;28;83129;-64
2023/04/05 10:10:23;;;;;;;9.52;4.80;;;22.10;28.60;;;;;;6147481;28;80424;-64
2023/04/05 10:13:24;;;;;;;10.20;4.22;;;22.10;28.20;;;;;;6117302;28;82677;-64
2023/04/05 10:16:25;;;;;;;9.35;4.63;;;22.10;28.10;;;;;;6144925;28;80969;-64
2023/04/05 10:19:25;;;;;;;8.38;4.60;;;22.10;28.00;;;;;;6149387;28;80461;-64
2023/04/05 10:22:26;;;;;;;10.25;4.03;;;22.10;28.10;;;;;;6148232;28;80174;-64
2023/04/05 10:25:26;;;;;;;9.52;4.15;;;22.10;28.70;;;;;;6148940;28;80402;-67
2023/04/05 10:28:27;;;;;;;5.82;3.75;;;22.10;28.30;;;;;;6114960;28;81585;-65
2023/04/05 10:31:27;;;;;;;7.78;4.07;;;22.10;29.00;;;;;;6099465;28;80570;-66
2023/04/05 10:34:28;;;;;;;7.13;3.95;;;22.10;28.50;;;;;;6115931;28;86483;-64
2023/04/05 10:37:28;;;;;;;8.85;3.90;;;22.20;28.00;;;;;;6124082;28;81245;-64
2023/04/05 10:40:30;;;;;;;6.78;3.92;;;22.20;28.30;;;;;;6122623;28;81921;-63
2023/04/05 10:43:30;;;;;;;10.43;3.85;;;22.30;28.70;;;;;;6121846;28;82557;-65
2023/04/05 10:46:31;;;;;;;9.63;4.47;;;22.30;28.40;;;;;;6122095;28;80462;-64
2023/04/05 10:49:32;;;;;;;7.38;3.40;;;22.30;28.20;;;;;;6124910;28;80330;-66
2023/04/05 10:52:32;;;;;;;6.55;3.78;;;22.30;28.40;;;;;;6123011;28;80720;-65
2023/04/05 10:55:33;;;;;;;6.20;3.53;;;22.30;28.50;;;;;;6124347;28;80333;-67
2023/04/05 10:58:33;;;;;;;6.00;3.67;;;22.30;28.50;;;;;;6115710;28;85174;-63
2023/04/05 11:01:34;;;;;;;6.15;3.80;;;22.30;28.40;;;;;;6104274;28;81219;-64
2023/04/05 11:04:34;;;;;;;5.97;3.40;;;22.20;28.40;;;;;;6061998;28;85481;-63
2023/04/05 11:07:35;;;;;;;7.90;3.63;;;22.20;28.70;;;;;;6118828;28;80805;-68
2023/04/05 11:10:36;;;;;;;8.77;3.90;;;22.20;28.30;;;;;;6125387;28;81314;-66
2023/04/05 11:13:36;;;;;;;5.53;3.45;;;22.20;28.80;;;;;;6125151;28;84168;-67
2023/04/05 11:16:37;;;;;;;5.75;3.40;;;22.20;28.70;;;;;;6122160;28;85609;-67
2023/04/05 11:19:37;;;;;;;6.78;3.42;;;22.20;28.40;;;;;;6121125;28;80587;-66
2023/04/05 11:22:38;;;;;;;5.05;3.30;;;22.20;28.00;;;;;;6122945;28;81047;-66
2023/04/05 11:25:39;;;;;;;8.52;3.05;;;22.20;28.70;;;;;;6122327;28;81047;-66
2023/04/05 11:28:39;;;;;;;5.63;3.35;;;22.20;28.90;;;;;;6121417;28;80354;-66
2023/04/05 11:31:40;;;;;;;5.60;3.40;;;22.20;28.60;;;;;;6123774;28;82636;-66
2023/04/05 11:34:40;;;;;;;7.50;3.60;;;22.20;28.70;;;;;;6120914;28;80107;-69
2023/04/05 11:37:41;;;;;;;8.70;4.55;;;22.20;28.60;;;;;;6122781;28;81942;-69
2023/04/05 11:40:42;;;;;;;7.28;4.07;;;22.20;28.80;;;;;;6122560;28;85971;-67
2023/04/05 11:43:42;;;;;;;6.13;3.85;;;22.20;28.60;;;;;;6124031;28;85874;-69
2023/04/05 11:46:43;;;;;;;7.38;3.65;;;22.20;29.70;;;;;;6123778;28;82388;-68
2023/04/05 11:49:46;;;;;;;9.73;4.53;;;22.20;29.40;;;;;;6120963;28;80931;-66
2023/04/05 11:52:46;;;;;;;9.02;4.40;;;22.20;29.10;;;;;;6116916;28;81749;-65
2023/04/05 11:55:47;;;;;;;10.23;4.45;;;22.30;29.50;;;;;;6122028;28;82262;-67
2023/04/05 11:58:47;;;;;;;6.25;4.20;;;22.30;29.30;;;;;;6116254;28;84307;-68
2023/04/05 12:01:48;;;;;;;7.93;4.50;;;22.40;29.50;;;;;;6119673;28;83995;-69
2023/04/05 12:04:48;;;;;;;10.23;4.43;;;22.50;29.20;;;;;;6114363;28;80702;-68
2023/04/05 12:07:49;;;;;;;6.85;4.05;;;22.50;29.10;;;;;;6117976;28;82085;-68
2023/04/05 12:10:49;;;;;;;5.97;3.90;;;22.60;29.00;;;;;;6119116;28;85115;-68
2023/04/05 12:13:50;;;;;;;6.25;3.78;;;22.60;28.60;;;;;;6118405;28;82508;-67
2023/04/05 12:16:50;;;;;;;6.18;3.75;;;22.60;29.10;;;;;;6122047;28;81983;-66
2023/04/05 12:19:51;;;;;;;5.15;3.30;;;22.70;28.60;;;;;;6124560;28;80515;-66
2023/04/05 12:22:52;;;;;;;7.35;4.15;;;22.70;28.20;;;;;;6121375;28;86156;-63
2023/04/05 12:25:52;;;;;;;11.77;4.45;;;22.70;28.50;;;;;;6123130;28;86186;-65
2023/04/05 12:28:53;;;;;;;8.98;4.63;;;22.70;28.70;;;;;;6120486;28;82799;-65
2023/04/05 12:31:53;;;;;;;9.00;4.97;;;22.70;29.10;;;;;;6123026;28;81004;-64
2023/04/05 12:34:56;;;;;;;10.82;4.45;;;22.60;29.10;;;;;;6123556;28;81192;-64
2023/04/05 12:37:57;;;;;;;10.60;5.35;;;22.60;29.00;;;;;;6118583;28;80265;-64
2023/04/05 12:40:57;;;;;;;8.68;4.90;;;22.60;29.20;;;;;;6123609;28;83320;-59
2023/04/05 12:44:03;;;;;;;8.98;5.00;;;22.60;29.50;;;;;;6121811;28;84622;-59
2023/04/05 12:47:08;;;;;;;7.78;4.40;;;22.60;29.10;;;;;;6123169;28;80776;-60
2023/04/05 12:50:08;;;;;;;10.68;4.88;;;22.60;29.40;;;;;;6117311;28;81624;-60
2023/04/05 12:53:09;;;;;;;8.25;4.50;;;22.60;29.50;;;;;;6097377;28;82659;-60
2023/04/05 12:56:09;;;;;;;12.57;5.47;;;22.60;29.00;;;;;;6119696;28;81430;-60
2023/04/05 12:59:10;;;;;;;8.95;5.45;;;22.70;29.00;;;;;;6117167;28;82611;-65
2023/04/05 13:02:10;;;;;;;8.73;4.97;;;22.70;29.10;;;;;;6121050;28;84842;-66
2023/04/05 13:05:11;;;;;;;10.27;5.50;;;22.70;28.90;;;;;;6121164;28;82034;-68
2023/04/05 13:08:12;;;;;;;8.18;5.13;;;22.80;28.70;;;;;;6117863;28;80776;-66
2023/04/05 13:11:12;;;;;;;10.25;4.90;;;22.80;28.30;;;;;;6097454;28;84936;-67
2023/04/05 13:14:13;;;;;;;11.32;5.00;;;22.70;27.80;;;;;;6121343;28;80832;-66
2023/04/05 13:17:13;;;;;;;7.55;4.93;;;22.70;28.50;;;;;;6119973;28;81616;-66
2023/04/05 13:20:14;;;;;;;7.90;4.88;;;22.60;28.20;;;;;;6121650;28;81401;-67
2023/04/05 13:23:15;;;;;;;8.45;4.93;;;22.60;28.20;;;;;;6129436;28;80584;-67
2023/04/05 13:26:15;;;;;;;8.52;5.22;;;22.60;28.20;;;;;;6129984;28;81062;-67
2023/04/05 13:29:16;;;;;;;10.43;5.50;;;22.60;28.00;;;;;;6125617;28;82116;-65
2023/04/05 13:32:16;;;;;;;10.10;5.20;;;22.50;28.10;;;;;;6123536;28;83339;-64
2023/04/05 13:35:17;;;;;;;10.20;4.90;;;22.50;28.00;;;;;;6127431;28;80405;-65
2023/04/05 13:38:17;;;;;;;10.05;5.18;;;22.40;28.20;;;;;;6127117;28;80638;-66
2023/04/05 13:41:18;;;;;;;10.52;4.55;;;22.40;28.00;;;;;;6123566;28;80894;-67
2023/04/05 13:44:18;;;;;;;13.38;4.60;;;22.40;28.60;;;;;;6115245;28;81452;-66
2023/04/05 13:47:19;;;;;;;7.80;4.82;;;22.40;28.10;;;;;;6127835;28;82210;-66
2023/04/05 13:50:20;;;;;;;8.15;5.05;;;22.30;28.60;;;;;;6126279;28;82021;-65
2023/04/05 13:53:20;;;;;;;9.73;5.50;;;22.30;28.10;;;;;;6126568;28;80291;-59
2023/04/05 13:56:21;;;;;;;10.00;5.10;;;22.20;27.70;;;;;;6125061;28;81193;-59
2023/04/05 13:59:21;;;;;;;14.57;5.90;;;22.30;28.50;;;;;;6124177;28;83211;-60
2023/04/05 14:02:24;;;;;;;9.45;5.57;;;22.20;28.30;;;;;;6113479;28;82866;-59
2023/04/05 14:05:25;;;;;;;12.13;5.55;;;22.20;27.90;;;;;;6117020;28;83410;-59
2023/04/05 14:08:25;;;;;;;11.45;5.10;;;22.20;27.80;;;;;;6126082;28;81827;-62
2023/04/05 14:11:26;;;;;;;12.45;6.07;;;22.20;28.40;;;;;;6107898;28;82341;-59
2023/04/05 14:14:26;;;;;;;12.38;5.78;;;22.20;28.80;;;;;;6127517;28;80438;-56
2023/04/05 14:17:27;;;;;;;15.23;5.80;;;22.20;28.20;;;;;;6128146;28;86740;-65
2023/04/05 14:20:27;;;;;;;11.18;6.00;;;22.10;28.50;;;;;;6127179;28;81119;-62
2023/04/05 14:23:28;;;;;;;11.82;5.65;;;22.20;28.20;;;;;;6125877;28;80331;-61
2023/04/05 14:26:28;;;;;;;9.60;5.20;;;22.40;28.40;;;;;;6126789;28;80734;-60
2023/04/05 14:29:29;;;;;;;10.18;5.45;;;22.50;28.50;;;;;;6124422;28;81615;-60
2023/04/05 14:32:29;;;;;;;9.55;5.15;;;22.60;28.70;;;;;;6125620;28;81143;-61
2023/04/05 14:35:30;;;;;;;9.85;5.72;;;22.70;28.70;;;;;;6126183;28;80443;-60
2023/04/05 14:38:30;;;;;;;8.23;4.85;;;22.80;28.90;;;;;;6127626;28;80672;-60
2023/04/05 14:41:31;;;;;;;8.82;4.82;;;22.80;28.90;;;;;;6126938;28;80242;-60
2023/04/05 14:44:31;;;;;;;10.15;5.00;;;22.80;29.00;;;;;;6117753;28;83233;-59
2023/04/05 14:47:32;;;;;;;12.10;5.18;;;22.90;29.20;;;;;;6020049;28;82870;-60
2023/04/05 14:50:32;;;;;;;9.57;4.30;;;22.90;29.20;;;;;;6113122;28;81079;-61
2023/04/05 14:53:33;;;;;;;8.18;4.45;;;22.90;29.30;;;;;;6126364;28;81325;-60
2023/04/05 14:56:34;;;;;;;9.27;4.85;;;23.00;29.80;;;;;;6125491;28;80486;-62
2023/04/05 14:59:34;;;;;;;16.30;5.00;;;23.00;29.80;;;;;;6100562;28;82682;-59
2023/04/05 15:02:35;;;;;;;9.70;5.32;;;23.00;29.80;;;;;;6126550;28;80471;-61
2023/04/05 15:05:35;;;;;;;9.10;4.45;;;23.10;30.10;;;;;;6127693;28;80685;-67
2023/04/05 15:08:35;;;;;;;10.52;4.50;;;23.10;30.70;;;;;;6126176;28;80218;-68
2023/04/05 15:11:38;;;;;;;7.78;4.20;;;23.10;31.20;;;;;;6126612;28;80308;-62
2023/04/05 15:14:38;;;;;;;7.43;4.07;;;23.20;31.40;;;;;;6126928;28;82356;-61
2023/04/05 15:17:39;;;;;;;6.93;3.95;;;23.20;31.70;;;;;;6125779;28;81281;-62
2023/04/05 15:20:40;;;;;;;6.28;4.15;;;23.20;31.20;;;;;;6126591;28;81390;-62
2023/04/05 15:23:40;;;;;;;8.07;4.05;;;23.20;31.20;;;;;;6126232;28;87427;-63
2023/04/05 15:26:41;;;;;;;10.02;4.43;;;23.20;30.90;;;;;;6124980;28;82492;-64
2023/04/05 15:29:41;;;;;;;8.70;3.95;;;23.20;30.60;;;;;;6123580;28;81150;-63
2023/04/05 15:32:42;;;;;;;8.00;3.90;;;23.30;30.40;;;;;;6127600;28;80551;-63
2023/04/05 15:35:42;;;;;;;5.68;3.63;;;23.30;30.20;;;;;;6124444;28;80474;-60
2023/04/05 15:38:43;;;;;;;8.05;4.45;;;23.30;30.30;;;;;;6127420;28;86838;-58
2023/04/05 15:41:43;;;;;;;10.70;5.00;;;23.30;30.80;;;;;;6126409;28;81917;-60